Aérodrome :
LOGIN :

S'inscrire | Disclaimer

   EN    FR    IT 

 










Légende :    VFR   VFR Marginal   IFR   IFR Intensif   IFR Très Intensif
Visi : 
Plafond : 
>= 8 km
>= 3000ft
5 à 8 km
1000 à 3000 ft
1500m à 5 km
500 à 1000 ft
800 à 1500m
200 à 500 ft
< 800m
< 200 ft
Symboles :   Orages  Brouillard  Fortes neiges  Fortes précipitations  Vent > 20 kt
SIGMETs :   Divers  Orages  Givrage  Turbulence  Onde Orograph.  Cendres Volcan.






- Altitude de l'aérodrome : 1106 ft


LFSO - Nancy / Ochey

DERNIER METAR :
  • 191400Z AUTO 23007KT 9999 OVC013 15/13 Q1015 TEMPO 3000 -DZRA BECMG BKN009 BKN019

METARs EXPIRÉS :
  • 191330Z AUTO 25006KT 230V290 9999 BKN010 OVC014 15/13 Q1014 TEMPO 3000 -DZRA
  • 191300Z AUTO 24005KT 210V280 9999 SCT010 OVC014 14/13 Q1014 TEMPO 3000 -DZRA BECMG BKN009 BKN019
  • 191230Z AUTO 22009KT 7000 BKN009 OVC013 14/13 Q1014 TEMPO 3000 -DZRA
  • 191200Z AUTO 26007KT 9999 BKN009 BKN019 OVC026 14/13 Q1014
  • 191130Z AUTO 22010KT 9999 BKN009 OVC013 14/13 Q1014

TAF AMD TAF LFSO
Valide du 19 à 12h jusqu'au 20 à 09h UTC


191214Z 1912/2009 26007KT 9999 BKN009 BKN019
TEMPO 1912/1921 3000 -DZRA
BECMG 1921/1922 BKN015
TEMPO 2001/2009 3000 DZRA BKN005



MET'MAP, la Météo Aéronautique d'un coup d'oeil ! - Copyright ORBIFLY Décembre 2007 - Disclaimer

ORBIFLY MET'MAP TEAM :

Programmation & Développement : Alexandra Zaïnal
Sur une idée originale de : Baudouin d'Aumeries
Assistance à la programmation : Marc-Olivier Méhu
Soutien technique & logistique : Manuel Goepfert

Contact : metmap@orbifly.com




SOURCES & CREDITS :

   NOAA